Time;durP1;ratioP1;P1;durP2;ratioP2;P2;SDS_P1;SDS_P2;PMS_P1;PMS_P2;Temp;Humidity;BMP_temperature;BMP_pressure;BME280_temperature;BME280_humidity;BME280_pressure;Samples;Min_cycle;Max_cycle;Signal;HPM_P1;HPM_P2
2022/11/15 00:00:49;;;;;;;9.38;3.20;;;;;;;8.26;100.00;99638.16;4797257;29;20045;-77
2022/11/15 00:03:15;;;;;;;10.65;3.50;;;;;;;8.26;100.00;99632.63;4812185;29;20035;-77
2022/11/15 00:05:41;;;;;;;13.50;3.22;;;;;;;8.26;100.00;99638.16;4800319;29;20043;-77
2022/11/15 00:08:06;;;;;;;15.20;3.00;;;;;;;8.25;100.00;99621.88;4811075;29;20396;-77
2022/11/15 00:10:32;;;;;;;13.20;3.60;;;;;;;8.27;100.00;99614.94;4782292;29;20041;-77
2022/11/15 00:12:57;;;;;;;11.88;3.42;;;;;;;8.26;100.00;99616.03;4812161;29;20042;-77
2022/11/15 00:15:23;;;;;;;7.80;3.25;;;;;;;8.26;100.00;99610.50;4828411;29;20396;-78
2022/11/15 00:17:49;;;;;;;11.80;3.55;;;;;;;8.28;100.00;99607.44;4812234;29;20030;-78
2022/11/15 00:20:14;;;;;;;11.43;3.28;;;;;;;8.28;100.00;99601.91;4811738;29;20035;-77
2022/11/15 00:22:40;;;;;;;9.43;3.38;;;;;;;8.28;100.00;99593.63;4807608;29;20748;-77
2022/11/15 00:25:06;;;;;;;12.48;3.67;;;;;;;8.27;100.00;99589.19;4812214;29;20049;-77
2022/11/15 00:27:31;;;;;;;10.63;3.70;;;;;;;8.26;100.00;99576.50;4840543;29;20042;-77
2022/11/15 00:29:57;;;;;;;14.20;3.53;;;;;;;8.27;100.00;99573.44;4828170;29;20037;-77
2022/11/15 00:32:22;;;;;;;12.70;3.15;;;;;;;8.28;100.00;99566.78;4795815;29;20037;-77
2022/11/15 00:34:48;;;;;;;18.42;3.60;;;;;;;8.27;100.00;99567.91;4811673;29;20038;-77
2022/11/15 00:37:13;;;;;;;14.75;3.28;;;;;;;8.28;100.00;99552.94;4811436;29;20050;-77
2022/11/15 00:39:38;;;;;;;13.32;3.17;;;;;;;8.29;100.00;99549.03;4796096;29;20045;-77
2022/11/15 00:42:04;;;;;;;12.15;3.17;;;;;;;8.28;100.00;99538.28;4831693;29;20388;-78
2022/11/15 00:44:29;;;;;;;13.38;2.95;;;;;;;8.26;100.00;99533.06;4839208;29;20072;-77
2022/11/15 00:46:55;;;;;;;13.40;3.05;;;;;;;8.31;100.00;99534.09;4787315;29;20046;-77
2022/11/15 00:49:20;;;;;;;11.15;2.70;;;;;;;8.32;100.00;99531.03;4811399;29;20034;-77
2022/11/15 00:51:46;;;;;;;10.63;2.92;;;;;;;8.33;100.00;99520.78;4829640;29;20573;-77
2022/11/15 00:54:11;;;;;;;13.45;2.83;;;;;;;8.36;100.00;99514.63;4829244;29;20042;-77
2022/11/15 00:56:37;;;;;;;14.82;3.00;;;;;;;8.35;100.00;99508.28;4846011;29;20041;-77
2022/11/15 00:59:02;;;;;;;12.13;2.50;;;;;;;8.38;100.00;99504.09;4845973;29;20038;-77
2022/11/15 01:01:28;;;;;;;25.27;3.47;;;;;;;8.39;100.00;99512.13;4812701;29;20061;-77
2022/11/15 01:03:53;;;;;;;9.95;2.55;;;;;;;8.38;100.00;99502.13;4819127;29;20042;-77
2022/11/15 01:06:19;;;;;;;14.55;3.10;;;;;;;8.40;100.00;99499.09;4831220;29;20033;-77
2022/11/15 01:08:44;;;;;;;14.60;2.80;;;;;;;8.41;100.00;99481.38;4845467;29;20067;-77
2022/11/15 01:11:11;;;;;;;10.95;2.40;;;;;;;8.44;100.00;99478.00;4829242;29;20030;-77
2022/11/15 01:13:37;;;;;;;18.33;2.95;;;;;;;8.45;100.00;99474.13;4828721;29;20045;-77
2022/11/15 01:16:13;;;;;;;12.93;2.60;;;;;;;8.46;100.00;99472.97;4813829;29;20029;-77
2022/11/15 01:18:39;;;;;;;11.00;2.38;;;;;;;8.43;100.00;99465.28;4829320;29;20061;-77
2022/11/15 01:21:07;;;;;;;15.43;2.33;;;;;;;8.45;100.00;99469.41;4829200;29;20044;-77
2022/11/15 01:23:32;;;;;;;10.50;2.28;;;;;;;8.46;100.00;99456.38;4783586;29;20062;-77
2022/11/15 01:26:00;;;;;;;14.18;2.50;;;;;;;8.46;100.00;99442.53;4829166;29;20404;-78
2022/11/15 01:28:25;;;;;;;14.48;2.58;;;;;;;8.50;100.00;99449.94;4814081;29;20128;-78
2022/11/15 01:30:50;;;;;;;11.93;1.95;;;;;;;8.49;100.00;99448.28;4829301;29;20026;-78
2022/11/15 01:33:16;;;;;;;14.07;2.30;;;;;;;8.52;100.00;99440.50;4845168;29;20067;-77
2022/11/15 01:35:41;;;;;;;10.35;2.10;;;;;;;8.52;100.00;99437.72;4810485;29;20698;-78
2022/11/15 01:38:07;;;;;;;11.20;1.83;;;;;;;8.55;100.00;99435.16;4828484;29;20042;-77
2022/11/15 01:40:32;;;;;;;11.60;2.17;;;;;;;8.54;100.00;99430.75;4828831;29;20048;-78
2022/11/15 01:42:58;;;;;;;12.05;2.05;;;;;;;8.57;100.00;99416.31;4828483;29;20094;-77
2022/11/15 01:45:23;;;;;;;11.25;2.70;;;;;;;8.58;100.00;99429.03;4828832;29;20041;-77
2022/11/15 01:47:51;;;;;;;10.77;1.70;;;;;;;8.62;100.00;99407.91;4810895;29;20037;-78
2022/11/15 01:50:19;;;;;;;14.90;2.22;;;;;;;8.62;100.00;99399.59;4813501;29;20058;-77
2022/11/15 01:52:45;;;;;;;10.55;1.80;;;;;;;8.66;100.00;99400.66;4812812;29;20097;-77
2022/11/15 01:55:13;;;;;;;11.13;2.15;;;;;;;8.65;100.00;99401.75;4828697;29;20041;-78
2022/11/15 01:57:39;;;;;;;10.25;1.63;;;;;;;8.68;100.00;99408.63;4783516;29;20029;-78
2022/11/15 02:00:06;;;;;;;13.50;2.20;;;;;;;8.66;100.00;99386.81;4828426;29;20483;-78
2022/11/15 02:02:32;;;;;;;12.57;1.92;;;;;;;8.69;100.00;99388.09;4812782;29;20040;-77
2022/11/15 02:04:58;;;;;;;13.13;1.80;;;;;;;8.69;100.00;99388.09;4822558;29;20030;-77
2022/11/15 02:07:23;;;;;;;12.10;1.65;;;;;;;8.73;100.00;99387.19;4830407;29;20042;-77
2022/11/15 02:09:49;;;;;;;15.48;2.40;;;;;;;8.74;100.00;99376.94;4812156;29;20057;-76
2022/11/15 02:12:16;;;;;;;7.88;1.80;;;;;;;8.76;100.00;99368.34;4828064;29;20038;-78
2022/11/15 02:14:42;;;;;;;12.45;1.55;;;;;;;8.79;100.00;99362.19;4841752;29;20034;-77
2022/11/15 02:17:14;;;;;;;10.45;1.50;;;;;;;8.81;100.00;99351.63;4812868;29;20030;-77
2022/11/15 02:19:55;;;;;;;8.70;1.77;;;;;;;8.82;100.00;99350.47;4827956;29;20042;-77
2022/11/15 02:22:27;;;;;;;9.93;1.88;;;;;;;8.82;100.00;99345.75;4827634;29;20042;-77
2022/11/15 02:25:14;;;;;;;9.25;1.80;;;;;;;8.84;100.00;99349.03;4844190;29;20041;-77
2022/11/15 02:28:17;;;;;;;11.65;1.73;;;;;;;8.83;100.00;99349.34;4832361;29;20080;-77
2022/11/15 02:30:44;;;;;;;12.15;1.92;;;;;;;8.86;100.00;99345.94;4844296;29;20037;-77
2022/11/15 02:33:35;;;;;;;8.30;2.33;;;;;;;8.87;100.00;99331.00;4812942;29;20044;-77
2022/11/15 02:36:01;;;;;;;12.70;2.05;;;;;;;8.88;100.00;99329.84;4836412;29;20040;-77
2022/11/15 02:38:47;;;;;;;7.05;1.50;;;;;;;8.89;100.00;99325.97;4856299;29;20038;-77
2022/11/15 02:41:19;;;;;;;11.95;2.20;;;;;;;8.90;100.00;99313.75;4827904;29;20041;-77
2022/11/15 02:43:59;;;;;;;12.80;2.03;;;;;;;8.91;100.00;99310.69;4822598;29;20065;-77
2022/11/15 02:47:12;;;;;;;11.98;1.75;;;;;;;8.89;100.00;99304.63;4822638;29;20458;-77
2022/11/15 02:49:39;;;;;;;9.73;1.37;;;;;;;8.93;100.00;99299.28;4827792;29;20034;-77
2022/11/15 02:52:04;;;;;;;12.35;1.80;;;;;;;8.93;100.00;99282.66;4813270;29;20608;-77
2022/11/15 02:54:31;;;;;;;11.70;1.92;;;;;;;8.92;100.00;99279.09;4843899;29;20038;-77
2022/11/15 02:57:03;;;;;;;12.07;2.13;;;;;;;8.94;100.00;99259.38;4844345;29;20492;-77
2022/11/15 02:59:41;;;;;;;15.88;2.63;;;;;;;8.95;100.00;99261.03;4828554;29;20045;-77
2022/11/15 03:02:09;;;;;;;11.43;1.67;;;;;;;8.95;100.00;99249.94;4841778;29;20053;-77
2022/11/15 03:04:54;;;;;;;17.40;2.53;;;;;;;8.95;100.00;99253.53;4841038;29;20045;-77
2022/11/15 03:07:39;;;;;;;12.57;1.60;;;;;;;8.98;100.00;99259.59;4821136;29;20038;-77
2022/11/15 03:10:08;;;;;;;8.95;1.45;;;;;;;9.00;100.00;99254.53;4817875;29;20026;-77
2022/11/15 03:12:44;;;;;;;10.05;1.83;;;;;;;8.99;100.00;99256.47;4827678;29;20044;-77
2022/11/15 03:15:14;;;;;;;8.25;1.50;;;;;;;9.02;100.00;99244.78;4844276;29;20042;-78
2022/11/15 03:17:53;;;;;;;13.32;1.80;;;;;;;9.01;100.00;99240.38;4844100;29;20030;-77
2022/11/15 03:20:19;;;;;;;8.52;1.50;;;;;;;8.99;100.00;99234.31;4828297;29;20057;-78
2022/11/15 03:22:45;;;;;;;9.13;1.45;;;;;;;9.03;100.00;99223.47;4830738;29;20561;-77
2022/11/15 03:25:14;;;;;;;13.15;1.75;;;;;;;9.04;100.00;99208.47;4812802;29;20038;-78
2022/11/15 03:27:43;;;;;;;7.97;1.52;;;;;;;9.04;100.00;99219.56;4818137;29;20068;-77
2022/11/15 03:30:09;;;;;;;13.65;1.75;;;;;;;9.05;100.00;99204.56;4828126;29;20025;-77
2022/11/15 03:32:39;;;;;;;16.27;1.85;;;;;;;8.99;100.00;99209.41;4812491;29;20087;-77
2022/11/15 03:35:17;;;;;;;12.30;1.70;;;;;;;9.02;100.00;99222.63;4831231;29;20030;-77
2022/11/15 03:37:44;;;;;;;11.50;1.60;;;;;;;9.01;100.00;99212.69;4788759;29;20487;-77
2022/11/15 03:40:10;;;;;;;9.18;1.42;;;;;;;9.04;100.00;99211.25;4830040;29;20038;-77
2022/11/15 03:42:41;;;;;;;13.45;1.95;;;;;;;9.04;100.00;99209.28;4835842;29;20030;-77
2022/11/15 03:45:13;;;;;;;11.65;1.80;;;;;;;9.05;100.00;99208.13;4828407;29;20109;-77
2022/11/15 03:47:40;;;;;;;8.05;1.45;;;;;;;9.05;100.00;99210.09;4847312;29;20071;-77
2022/11/15 03:50:13;;;;;;;11.10;1.70;;;;;;;9.03;100.00;99198.53;4800750;29;20554;-77
2022/11/15 03:52:39;;;;;;;12.60;1.80;;;;;;;9.06;100.00;99195.94;4830153;29;20483;-77
2022/11/15 03:55:06;;;;;;;10.75;1.50;;;;;;;9.05;100.00;99194.28;4815630;29;20061;-77
2022/11/15 03:57:32;;;;;;;13.80;1.75;;;;;;;9.07;100.00;99191.22;4794991;29;20097;-76
2022/11/15 03:59:57;;;;;;;15.52;1.92;;;;;;;9.09;100.00;99194.50;4846906;29;20441;-77
2022/11/15 04:02:23;;;;;;;11.60;1.65;;;;;;;9.08;100.00;99185.38;4830376;29;20044;-77
2022/11/15 04:04:48;;;;;;;6.57;1.30;;;;;;;9.09;100.00;99178.69;4840831;29;20045;-77
2022/11/15 04:07:14;;;;;;;15.57;1.55;;;;;;;9.09;100.00;99178.69;4838855;29;20037;-77
2022/11/15 04:12:32;;;;;;;12.63;1.40;;;;;;;9.13;100.00;99162.25;4833240;29;20041;-77
2022/11/15 04:15:09;;;;;;;13.07;1.52;;;;;;;9.13;100.00;99154.75;4831435;29;20452;-77
2022/11/15 04:17:41;;;;;;;8.68;1.52;;;;;;;9.15;100.00;99160.81;4816788;29;20029;-77
2022/11/15 04:25:38;;;;;;;9.52;1.35;;;;;;;9.19;100.00;99138.81;4829620;29;20113;-77
2022/11/15 04:28:04;;;;;;;10.32;1.65;;;;;;;9.20;100.00;99134.13;4830359;29;20034;-77
2022/11/15 04:30:29;;;;;;;12.63;1.33;;;;;;;9.21;100.00;99130.19;4811847;29;20033;-77
2022/11/15 04:32:54;;;;;;;15.02;1.73;;;;;;;9.24;100.00;99118.47;4829426;29;20030;-77
2022/11/15 04:35:20;;;;;;;10.82;1.75;;;;;;;9.23;100.00;99119.63;4826826;29;20037;-77
2022/11/15 04:37:45;;;;;;;15.48;2.53;;;;;;;9.26;100.00;99121.75;4845966;29;20042;-77
2022/11/15 04:40:11;;;;;;;10.45;1.65;;;;;;;9.26;100.00;99124.53;4829909;29;20103;-77
2022/11/15 04:42:36;;;;;;;13.23;1.65;;;;;;;9.28;100.00;99116.72;4825529;29;20034;-77
2022/11/15 04:45:02;;;;;;;16.98;1.70;;;;;;;9.29;100.00;99115.56;4845608;29;20038;-77
2022/11/15 04:47:29;;;;;;;12.45;1.90;;;;;;;9.29;100.00;99105.31;4814715;29;20133;-77
2022/11/15 04:49:54;;;;;;;6.93;1.35;;;;;;;9.31;100.00;99103.03;4822208;29;20065;-77
2022/11/15 04:52:20;;;;;;;14.65;2.10;;;;;;;9.33;100.00;99099.94;4766344;29;20055;-77
2022/11/15 04:54:45;;;;;;;13.45;1.63;;;;;;;9.33;100.00;99099.94;4827452;29;20123;-77
2022/11/15 04:57:11;;;;;;;12.60;2.35;;;;;;;9.34;100.00;99094.09;4811676;29;20041;-77
2022/11/15 04:59:36;;;;;;;8.52;1.65;;;;;;;9.37;100.00;99089.84;4795666;29;20035;-77
2022/11/15 05:02:02;;;;;;;10.85;1.83;;;;;;;9.37;100.00;99081.53;4827585;29;20064;-77
2022/11/15 05:04:27;;;;;;;14.00;1.92;;;;;;;9.41;100.00;99079.75;4795714;29;20144;-77
2022/11/15 05:06:53;;;;;;;18.98;2.20;;;;;;;9.42;100.00;99080.56;4810607;29;20511;-78
2022/11/15 05:09:18;;;;;;;6.57;1.70;;;;;;;9.43;100.00;99071.94;4822872;29;20069;-77
2022/11/15 05:11:44;;;;;;;7.05;1.88;;;;;;;9.44;100.00;99059.72;4827122;29;20058;-77
2022/11/15 05:14:09;;;;;;;8.40;1.75;;;;;;;9.45;100.00;99066.91;4827351;29;20038;-77
2022/11/15 05:16:35;;;;;;;9.95;2.17;;;;;;;9.46;100.00;99065.75;4827246;29;20034;-77
2022/11/15 05:19:01;;;;;;;9.38;1.55;;;;;;;9.46;100.00;99049.13;4795004;29;20035;-77
2022/11/15 05:21:26;;;;;;;11.88;1.52;;;;;;;9.48;100.00;99034.97;4810082;29;20035;-78
2022/11/15 05:23:52;;;;;;;12.55;1.60;;;;;;;9.49;100.00;99029.06;4826950;29;20034;-77
2022/11/15 05:26:17;;;;;;;13.23;1.67;;;;;;;9.49;100.00;99037.41;4781120;29;20038;-77
2022/11/15 05:28:43;;;;;;;11.73;1.75;;;;;;;9.52;100.00;99030.38;4795144;29;20035;-77
2022/11/15 05:31:15;;;;;;;9.77;1.80;;;;;;;9.52;100.00;99033.97;4810771;29;20030;-77
2022/11/15 05:33:41;;;;;;;13.75;2.10;;;;;;;9.54;100.00;99030.88;4810441;29;20038;-77
2022/11/15 05:36:29;;;;;;;14.07;1.70;;;;;;;9.55;100.00;99019.47;4810368;29;20514;-78
2022/11/15 05:38:55;;;;;;;19.15;2.28;;;;;;;9.56;100.00;99021.13;4798752;29;20042;-77
2022/11/15 05:41:22;;;;;;;15.00;2.20;;;;;;;9.57;100.00;99016.38;4810457;29;20038;-77
2022/11/15 05:43:48;;;;;;;13.50;2.03;;;;;;;9.59;100.00;99005.78;4810317;29;20038;-77
2022/11/15 05:46:14;;;;;;;12.40;1.70;;;;;;;9.60;100.00;99016.53;4810477;29;20045;-77
2022/11/15 05:48:40;;;;;;;12.57;1.75;;;;;;;9.62;100.00;98999.59;4795814;29;20034;-77
2022/11/15 05:51:06;;;;;;;12.30;1.90;;;;;;;9.63;100.00;98999.25;4823390;29;20463;-77
2022/11/15 05:53:31;;;;;;;14.25;1.90;;;;;;;9.65;100.00;98995.38;4809494;29;20026;-78
2022/11/15 05:55:57;;;;;;;13.23;2.10;;;;;;;9.68;100.00;98994.72;4839477;29;20385;-78
2022/11/15 05:58:22;;;;;;;12.07;2.03;;;;;;;9.69;100.00;98996.34;4829044;29;20044;-77
2022/11/15 06:00:48;;;;;;;11.07;1.60;;;;;;;9.68;100.00;98994.72;4828491;29;20038;-77
2022/11/15 06:03:14;;;;;;;10.35;2.35;;;;;;;9.68;100.00;98989.16;4843685;29;20045;-77
2022/11/15 06:05:40;;;;;;;8.82;1.92;;;;;;;9.71;100.00;98994.06;4813178;29;20042;-77
2022/11/15 06:08:05;;;;;;;13.05;2.90;;;;;;;9.70;100.00;98976.63;4828188;29;20048;-77
2022/11/15 06:10:31;;;;;;;14.00;2.67;;;;;;;9.71;100.00;98978.25;4828902;29;20034;-77
2022/11/15 06:13:03;;;;;;;13.13;2.58;;;;;;;9.72;100.00;98970.72;4813405;29;20040;-77
2022/11/15 06:15:29;;;;;;;11.95;2.45;;;;;;;9.74;100.00;98976.78;4832413;29;20458;-77
2022/11/15 06:17:57;;;;;;;11.15;2.67;;;;;;;9.71;100.00;98978.25;4844581;29;20033;-77
2022/11/15 06:20:27;;;;;;;9.68;2.28;;;;;;;9.74;100.00;98972.03;4828209;29;20042;-77
2022/11/15 06:23:02;;;;;;;8.23;2.10;;;;;;;9.75;100.00;98972.84;4844257;29;20104;-77
2022/11/15 06:25:28;;;;;;;13.32;2.38;;;;;;;9.75;100.00;98970.91;4828158;29;20556;-77
2022/11/15 06:27:57;;;;;;;17.08;2.78;;;;;;;9.76;100.00;98971.72;4828440;29;20042;-78
2022/11/15 06:30:22;;;;;;;16.98;2.80;;;;;;;9.78;100.00;98963.91;4816077;29;20029;-78
2022/11/15 06:32:48;;;;;;;15.40;2.75;;;;;;;9.79;100.00;98957.22;4814233;29;20037;-78
2022/11/15 06:35:14;;;;;;;15.27;3.15;;;;;;;9.82;100.00;98951.00;4813018;29;20507;-78
2022/11/15 06:37:40;;;;;;;14.20;2.80;;;;;;;9.82;100.00;98951.81;4844332;29;20042;-78
2022/11/15 06:40:06;;;;;;;17.30;2.80;;;;;;;9.82;100.00;98949.03;4797758;29;20087;-78
2022/11/15 06:42:32;;;;;;;10.38;2.70;;;;;;;9.86;100.00;98940.88;4783575;29;20033;-78
2022/11/15 06:44:57;;;;;;;12.32;2.80;;;;;;;9.86;100.00;98935.34;4828072;29;20396;-78
2022/11/15 06:47:23;;;;;;;18.77;3.20;;;;;;;9.87;100.00;98938.94;4798256;29;20095;-78
2022/11/15 06:49:48;;;;;;;14.02;3.30;;;;;;;9.91;100.00;98931.59;4797953;29;20049;-78
2022/11/15 06:52:14;;;;;;;9.80;2.70;;;;;;;9.90;100.00;98929.97;4828072;29;20034;-78
2022/11/15 06:54:39;;;;;;;12.65;2.97;;;;;;;9.90;100.00;98941.88;4797691;29;20045;-77
2022/11/15 06:57:05;;;;;;;13.93;2.58;;;;;;;9.92;100.00;98927.66;4795022;29;20031;-78
2022/11/15 06:59:30;;;;;;;9.27;2.33;;;;;;;9.92;100.00;98950.69;4809900;29;20404;-78
2022/11/15 07:01:56;;;;;;;13.88;2.97;;;;;;;9.92;100.00;98920.19;4828026;29;20045;-77
2022/11/15 07:04:21;;;;;;;9.30;3.00;;;;;;;9.95;100.00;98922.28;4831061;29;20044;-78
2022/11/15 07:06:48;;;;;;;12.07;2.78;;;;;;;9.94;100.00;98911.50;4823414;29;20042;-77
2022/11/15 07:09:13;;;;;;;13.07;3.00;;;;;;;9.97;100.00;98917.25;4796775;29;20037;-77
2022/11/15 07:11:39;;;;;;;13.27;3.10;;;;;;;9.99;100.00;98911.34;4812437;29;20580;-77
2022/11/15 07:14:04;;;;;;;12.05;3.22;;;;;;;9.97;100.00;98910.84;4828548;29;20046;-77
2022/11/15 07:16:30;;;;;;;8.68;3.22;;;;;;;10.00;100.00;98908.25;4846419;29;20499;-77
2022/11/15 07:18:55;;;;;;;11.90;2.95;;;;;;;9.99;100.00;98903.84;4847412;29;20030;-77
2022/11/15 07:21:21;;;;;;;12.50;2.90;;;;;;;9.99;100.00;98900.25;4830867;29;20078;-77
2022/11/15 07:23:46;;;;;;;10.95;2.78;;;;;;;9.98;100.00;98896.66;4830474;29;20033;-76
2022/11/15 07:26:12;;;;;;;7.10;2.20;;;;;;;10.02;100.00;98903.19;4815987;29;20058;-76
2022/11/15 07:28:37;;;;;;;12.95;2.92;;;;;;;9.99;100.00;98905.81;4847465;29;20063;-76
2022/11/15 07:31:03;;;;;;;10.68;2.72;;;;;;;9.98;100.00;98891.13;4831071;29;20044;-77
2022/11/15 07:33:29;;;;;;;14.13;2.78;;;;;;;9.98;100.00;98885.59;4830580;29;20034;-77
2022/11/15 07:35:58;;;;;;;9.50;2.95;;;;;;;9.98;100.00;98893.09;4847327;29;20041;-77
2022/11/15 07:38:24;;;;;;;12.13;2.45;;;;;;;9.98;100.00;98893.91;4815418;29;20428;-77
2022/11/15 07:40:56;;;;;;;12.77;2.40;;;;;;;9.95;100.00;98889.00;4797491;29;20065;-77
2022/11/15 07:43:21;;;;;;;11.80;3.03;;;;;;;9.95;100.00;98877.13;4815572;29;20103;-77
2022/11/15 07:45:47;;;;;;;8.95;2.88;;;;;;;9.95;100.00;98874.34;4800723;29;20038;-77
2022/11/15 07:48:12;;;;;;;10.52;2.80;;;;;;;9.96;100.00;98882.31;4830637;29;20041;-76
2022/11/15 07:50:41;;;;;;;10.63;2.75;;;;;;;9.92;100.00;98880.50;4815479;29;20070;-77
2022/11/15 07:53:07;;;;;;;9.50;2.65;;;;;;;9.92;100.00;98872.19;4833726;29;20057;-77
2022/11/15 07:55:33;;;;;;;10.85;3.00;;;;;;;9.95;100.00;98871.56;4832122;29;20120;-77
2022/11/15 07:58:04;;;;;;;9.85;2.75;;;;;;;9.94;100.00;98867.16;4815463;29;20037;-77
2022/11/15 08:00:30;;;;;;;6.13;2.58;;;;;;;9.94;100.00;98878.25;4799511;29;20042;-77
2022/11/15 08:03:06;;;;;;;6.88;2.95;;;;;;;9.94;100.00;98867.94;4815576;29;20038;-77
2022/11/15 08:05:33;;;;;;;8.80;3.20;;;;;;;9.94;100.00;98889.31;4830498;29;20086;-77
2022/11/15 08:07:58;;;;;;;9.00;3.17;;;;;;;9.94;100.00;98884.59;4814810;29;20120;-77
2022/11/15 08:10:24;;;;;;;6.07;2.97;;;;;;;9.96;100.00;98885.09;4830210;29;20038;-77
2022/11/15 08:13:16;;;;;;;7.00;3.25;;;;;;;9.99;100.00;98878.06;4815090;29;20038;-77
2022/11/15 08:15:43;;;;;;;5.70;3.13;;;;;;;10.00;100.00;98880.53;4813863;29;20056;-77
2022/11/15 08:18:13;;;;;;;8.23;3.78;;;;;;;10.01;100.00;98887.69;4799943;29;20504;-77
2022/11/15 08:20:39;;;;;;;7.93;3.65;;;;;;;10.02;100.00;98892.09;4829578;29;20977;-77
2022/11/15 08:23:05;;;;;;;10.90;3.45;;;;;;;10.04;100.00;98887.03;4829971;29;20042;-77
2022/11/15 08:25:31;;;;;;;8.45;3.03;;;;;;;10.06;100.00;98893.06;4798613;29;20030;-77
2022/11/15 08:27:59;;;;;;;5.03;2.92;;;;;;;10.07;100.00;98908.56;4829986;29;20125;-77
2022/11/15 08:30:25;;;;;;;8.32;3.30;;;;;;;10.07;100.00;98894.69;4830402;29;20036;-77
2022/11/15 08:32:51;;;;;;;6.72;3.10;;;;;;;10.11;100.00;98905.94;4830011;29;20041;-76
2022/11/15 08:35:17;;;;;;;4.80;2.97;;;;;;;10.13;100.00;98894.50;4828139;29;20413;-77
2022/11/15 08:37:42;;;;;;;8.23;3.53;;;;;;;10.15;100.00;98890.28;4799846;29;20046;-76
2022/11/15 08:40:09;;;;;;;9.55;3.33;;;;;;;10.15;100.00;98886.69;4814888;29;20112;-77
2022/11/15 08:42:35;;;;;;;6.28;3.00;;;;;;;10.18;100.00;98888.78;4812381;29;20025;-76
2022/11/15 08:45:00;;;;;;;10.15;3.17;;;;;;;10.17;100.00;98879.66;4844717;29;20121;-76
2022/11/15 08:47:26;;;;;;;6.40;3.15;;;;;;;10.18;100.00;98886.03;4781646;29;20038;-77
2022/11/15 08:49:51;;;;;;;5.38;2.55;;;;;;;10.19;100.00;98880.13;4827075;29;20061;-77
2022/11/15 08:52:17;;;;;;;6.40;2.90;;;;;;;10.20;100.00;98872.63;4828977;29;20045;-77
2022/11/15 08:54:42;;;;;;;6.85;2.75;;;;;;;10.23;100.00;98867.22;4836249;29;20038;-76
2022/11/15 08:57:09;;;;;;;5.40;2.70;;;;;;;10.24;100.00;98863.31;4814310;29;20037;-76
2022/11/15 08:59:35;;;;;;;4.85;2.60;;;;;;;10.26;100.00;98861.03;4814303;29;20026;-77
2022/11/15 09:02:01;;;;;;;3.00;1.98;;;;;;;10.26;100.00;98838.00;4845702;29;20058;-77
2022/11/15 09:04:26;;;;;;;4.57;2.08;;;;;;;10.27;100.00;98851.56;4823201;29;20045;-76
2022/11/15 09:06:52;;;;;;;6.57;2.03;;;;;;;10.27;100.00;98845.22;4829266;29;20034;-77
2022/11/15 09:09:17;;;;;;;5.72;2.20;;;;;;;10.29;100.00;98852.06;4829229;29;20038;-77
2022/11/15 09:11:43;;;;;;;9.48;2.38;;;;;;;10.33;100.00;98837.50;4808062;29;20727;-77
2022/11/15 09:14:11;;;;;;;7.45;1.90;;;;;;;10.34;100.00;98842.75;4828312;29;20459;-77
2022/11/15 09:16:36;;;;;;;5.10;1.60;;;;;;;10.39;100.00;98827.84;4829302;29;20034;-76
2022/11/15 09:19:02;;;;;;;5.63;1.95;;;;;;;10.38;100.00;98840.91;4845553;29;20033;-77
2022/11/15 09:21:28;;;;;;;4.35;2.03;;;;;;;10.41;100.00;98829.16;4813898;29;20034;-77
2022/11/15 09:23:54;;;;;;;4.95;1.95;;;;;;;10.43;100.00;98823.28;4828852;29;20038;-77
2022/11/15 09:26:19;;;;;;;5.03;2.25;;;;;;;10.42;100.00;98825.25;4845539;29;20034;-77
2022/11/15 09:28:45;;;;;;;4.95;1.92;;;;;;;10.45;100.00;98821.78;4856207;29;20037;-77
2022/11/15 09:31:10;;;;;;;4.28;1.80;;;;;;;10.47;100.00;98821.44;4828928;29;20030;-76
2022/11/15 09:33:36;;;;;;;7.70;2.00;;;;;;;10.49;100.00;98813.59;4798562;29;20669;-76
2022/11/15 09:36:09;;;;;;;5.03;1.70;;;;;;;10.55;100.00;98805.91;4798683;29;20109;-76
2022/11/15 09:38:34;;;;;;;;;;;;;;;10.55;100.00;98812.25;4811802;29;20038;-77
2022/11/15 09:41:12;;;;;;;6.30;2.20;;;;;;;10.60;100.00;98806.53;4821365;29;19946;-77
2022/11/15 09:43:40;;;;;;;6.10;2.13;;;;;;;10.63;100.00;98807.81;4838562;29;20037;-76
2022/11/15 09:46:24;;;;;;;5.82;1.80;;;;;;;10.63;100.00;98807.81;4843524;29;20066;-77
2022/11/15 09:48:57;;;;;;;6.78;2.20;;;;;;;10.68;100.00;98802.06;4819666;29;20402;-77
2022/11/15 09:51:33;;;;;;;4.35;2.25;;;;;;;10.70;100.00;98802.56;4828751;29;20141;-77
2022/11/15 09:54:11;;;;;;;6.00;2.28;;;;;;;10.71;100.00;98809.72;4783694;29;20098;-77
2022/11/15 09:56:40;;;;;;;8.85;2.15;;;;;;;10.74;100.00;98803.50;4800683;29;20800;-77
2022/11/15 09:59:35;;;;;;;7.93;2.45;;;;;;;10.76;100.00;98812.31;4795598;29;20038;-76
2022/11/15 10:02:12;;;;;;;8.95;2.67;;;;;;;10.78;100.00;98810.03;4844611;29;20042;-76
2022/11/15 10:04:39;;;;;;;6.53;2.47;;;;;;;10.82;100.00;98801.81;4847624;29;20435;-77
2022/11/15 10:07:26;;;;;;;9.05;2.60;;;;;;;10.81;100.00;98792.69;4822218;29;20415;-76
2022/11/15 10:10:08;;;;;;;9.48;3.38;;;;;;;10.84;100.00;98792.00;4823502;29;20030;-76
2022/11/15 10:12:34;;;;;;;9.25;2.70;;;;;;;10.88;100.00;98792.13;4829605;29;20481;-77
2022/11/15 10:15:05;;;;;;;7.72;2.30;;;;;;;10.89;100.00;98802.91;4813314;29;20048;-76
2022/11/15 10:17:56;;;;;;;7.10;2.50;;;;;;;10.90;100.00;98801.75;4798192;29;20045;-77
2022/11/15 10:20:22;;;;;;;7.90;2.72;;;;;;;10.95;100.00;98786.88;4828135;29;20036;-77
2022/11/15 10:22:50;;;;;;;9.15;2.60;;;;;;;10.94;100.00;98790.78;4816018;29;20090;-76
2022/11/15 10:25:29;;;;;;;6.63;2.10;;;;;;;10.94;100.00;98779.66;4828075;29;20048;-77
2022/11/15 10:28:10;;;;;;;6.55;2.60;;;;;;;10.98;100.00;98785.34;4810092;29;20078;-76
2022/11/15 10:30:38;;;;;;;12.68;2.95;;;;;;;10.99;100.00;98781.44;4827039;29;20030;-77
2022/11/15 10:33:26;;;;;;;7.82;2.50;;;;;;;11.01;100.00;98782.72;4813233;29;20030;-77
2022/11/15 10:36:14;;;;;;;9.68;2.70;;;;;;;11.05;100.00;98780.06;4842118;29;20040;-77
2022/11/15 10:38:48;;;;;;;10.07;2.50;;;;;;;11.08;100.00;98782.16;4827268;29;20042;-76
2022/11/15 10:41:35;;;;;;;10.68;3.13;;;;;;;11.10;100.00;98788.22;4828140;29;20042;-77
2022/11/15 10:44:06;;;;;;;14.60;2.88;;;;;;;11.17;100.00;98783.75;4826727;29;20050;-76
2022/11/15 10:46:32;;;;;;;10.07;2.70;;;;;;;11.19;100.00;98788.94;4825112;29;20034;-77
2022/11/15 10:49:28;;;;;;;12.32;2.70;;;;;;;11.24;100.00;98782.38;4813830;29;20098;-77
2022/11/15 10:52:03;;;;;;;7.22;2.63;;;;;;;11.31;100.00;98788.19;4814787;29;20038;-77
2022/11/15 10:54:36;;;;;;;12.63;3.08;;;;;;;11.40;100.00;98788.94;4829964;29;20045;-77
2022/11/15 10:57:06;;;;;;;7.97;2.78;;;;;;;11.50;100.00;98788.47;4815644;29;20487;-77
2022/11/15 10:59:33;;;;;;;9.70;2.45;;;;;;;11.57;100.00;98780.41;4816359;29;20038;-77
2022/11/15 11:01:59;;;;;;;7.68;2.67;;;;;;;11.65;100.00;98781.47;4831431;29;20038;-77
2022/11/15 11:04:24;;;;;;;8.98;2.58;;;;;;;11.73;100.00;98769.47;4832119;29;20037;-77
2022/11/15 11:06:51;;;;;;;9.40;2.55;;;;;;;11.81;100.00;98768.56;4815596;29;20094;-77
2022/11/15 11:09:28;;;;;;;13.45;2.67;;;;;;;11.92;100.00;98766.13;4830810;29;20526;-77
2022/11/15 11:11:53;;;;;;;9.30;2.50;;;;;;;12.01;100.00;98754.94;4831217;29;20041;-77
2022/11/15 11:14:45;;;;;;;9.05;2.08;;;;;;;12.05;100.00;98750.28;4831088;29;20796;-77
2022/11/15 11:17:16;;;;;;;13.68;2.50;;;;;;;12.11;100.00;98743.31;4842837;29;20102;-77
2022/11/15 11:19:57;;;;;;;10.02;2.60;;;;;;;12.14;100.00;98745.41;4820915;29;20568;-77
2022/11/15 11:22:55;;;;;;;11.88;2.28;;;;;;;12.17;100.00;98738.34;4857675;29;20048;-78
2022/11/15 11:25:20;;;;;;;13.98;2.03;;;;;;;12.18;100.00;98735.22;4815448;29;20054;-77
2022/11/15 11:28:01;;;;;;;15.10;2.75;;;;;;;12.21;100.00;98734.53;4816068;29;20036;-77
2022/11/15 11:30:58;;;;;;;12.40;2.97;;;;;;;12.22;100.00;98727.78;4834435;29;20025;-77
2022/11/15 11:33:27;;;;;;;10.45;2.30;;;;;;;12.22;100.00;98722.22;4846994;29;20281;-78
2022/11/15 11:36:30;;;;;;;14.50;2.60;;;;;;;12.25;100.00;98721.53;4831768;29;20072;-78
2022/11/15 11:39:17;;;;;;;6.70;1.97;;;;;;;12.28;100.00;98706.91;4844824;29;20034;-78
2022/11/15 11:42:04;;;;;;;12.65;2.67;;;;;;;12.26;100.00;98705.66;4830704;29;20350;-78
2022/11/15 11:44:33;;;;;;;10.73;2.30;;;;;;;12.28;100.00;98704.13;4828677;29;20043;-78